Time,TemperatureF,DewpointF,PressureIn,WindDirection,WindDirectionDegrees,WindSpeedMPH,WindSpeedGustMPH,Humidity,HourlyPrecipIn,Conditions,Clouds,dailyrainin,SolarRadiationWatts/m^2,SoftwareType,DateUTC
2013-08-31 00:04:00,73.3,72.1,29.92,SE,136,0.0,0.0,96,0.00,,,0.00,0,Wunderground v.1.15,2013-08-31 05:04:00,
2013-08-31 00:14:00,73.2,71.7,29.92,SE,136,0.0,0.0,95,0.00,,,0.00,0,Wunderground v.1.15,2013-08-31 05:14:00,
2013-08-31 00:19:00,73.0,71.8,29.92,SE,136,0.0,0.0,96,0.00,,,0.00,0,Wunderground v.1.15,2013-08-31 05:19:00,
2013-08-31 00:29:00,73.5,72.3,29.92,SE,136,0.0,0.0,96,0.00,,,0.00,0,Wunderground v.1.15,2013-08-31 05:29:00,
2013-08-31 00:39:00,73.7,72.2,29.92,SE,136,0.0,0.0,95,0.00,,,0.00,0,Wunderground v.1.15,2013-08-31 05:39:00,
2013-08-31 00:49:00,73.8,72.0,29.92,SSE,161,0.0,0.0,94,0.00,,,0.00,0,Wunderground v.1.15,2013-08-31 05:49:00,
2013-08-31 00:54:00,74.0,72.2,29.92,SSE,161,0.0,0.0,94,0.00,,,0.00,0,Wunderground v.1.15,2013-08-31 05:54:00,
2013-08-31 01:04:00,74.2,71.7,29.92,SSE,161,0.0,0.0,92,0.00,,,0.00,0,Wunderground v.1.15,2013-08-31 06:04:00,
2013-08-31 01:14:00,73.9,71.7,29.92,SSE,161,0.0,0.0,93,0.00,,,0.00,0,Wunderground v.1.15,2013-08-31 06:14:00,
2013-08-31 01:24:00,74.2,72.4,29.92,SSE,161,0.0,0.0,94,0.00,,,0.00,0,Wunderground v.1.15,2013-08-31 06:24:00,
2013-08-31 01:29:00,74.1,72.3,29.92,SSE,161,0.0,0.0,94,0.00,,,0.00,0,Wunderground v.1.15,2013-08-31 06:29:00,
2013-08-31 01:39:00,73.9,72.1,29.91,SSE,161,0.0,0.0,94,0.00,,,0.00,0,Wunderground v.1.15,2013-08-31 06:39:00,
2013-08-31 01:49:00,73.5,71.7,29.91,SSE,161,0.0,0.0,94,0.00,,,0.00,0,Wunderground v.1.15,2013-08-31 06:49:00,
2013-08-31 01:54:00,73.3,71.5,29.91,SSE,161,0.0,0.0,94,0.00,,,0.00,0,Wunderground v.1.15,2013-08-31 06:54:00,
2013-08-31 02:04:00,73.0,71.5,29.91,SSE,161,0.0,0.0,95,0.00,,,0.00,0,Wunderground v.1.15,2013-08-31 07:04:00,
2013-08-31 02:09:00,72.8,71.3,29.91,SSE,161,0.0,0.0,95,0.00,,,0.00,0,Wunderground v.1.15,2013-08-31 07:09:00,
2013-08-31 02:19:00,73.0,71.8,29.91,SSE,161,0.0,0.0,96,0.00,,,0.00,0,Wunderground v.1.15,2013-08-31 07:19:00,
2013-08-31 02:29:00,73.1,71.6,29.91,SSE,161,0.0,0.0,95,0.00,,,0.00,0,Wunderground v.1.15,2013-08-31 07:29:00,
2013-08-31 02:34:00,73.3,71.8,29.91,SSE,161,0.0,0.0,95,0.00,,,0.00,0,Wunderground v.1.15,2013-08-31 07:34:00,
2013-08-31 02:44:00,73.4,71.9,29.91,SSE,161,0.0,0.0,95,0.00,,,0.00,0,Wunderground v.1.15,2013-08-31 07:44:00,
2013-08-31 02:49:00,73.4,71.9,29.91,SSE,161,0.0,0.0,95,0.00,,,0.00,0,Wunderground v.1.15,2013-08-31 07:49:00,
2013-08-31 02:59:00,73.3,71.8,29.91,SSE,161,0.0,0.0,95,0.00,,,0.00,0,Wunderground v.1.15,2013-08-31 07:59:00,
2013-08-31 03:09:00,73.1,71.6,29.91,SSE,161,0.0,0.0,95,0.00,,,0.00,0,Wunderground v.1.15,2013-08-31 08:09:00,
2013-08-31 03:19:00,72.7,71.5,29.91,SSE,161,0.0,0.0,96,0.00,,,0.00,0,Wunderground v.1.15,2013-08-31 08:19:00,
2013-08-31 03:29:00,72.6,71.4,29.91,SSE,161,0.0,0.0,96,0.00,,,0.00,0,Wunderground v.1.15,2013-08-31 08:29:00,
2013-08-31 03:34:00,72.5,71.3,29.91,SSE,161,0.0,0.0,96,0.00,,,0.00,0,Wunderground v.1.15,2013-08-31 08:34:00,
2013-08-31 03:44:00,72.4,71.5,29.91,SSE,161,0.0,0.0,97,0.00,,,0.00,0,Wunderground v.1.15,2013-08-31 08:44:00,
2013-08-31 03:54:00,72.4,71.5,29.91,SSE,161,0.0,0.0,97,0.00,,,0.00,0,Wunderground v.1.15,2013-08-31 08:54:00,
2013-08-31 04:04:00,72.0,71.1,29.91,SSE,161,0.0,0.0,97,0.00,,,0.00,0,Wunderground v.1.15,2013-08-31 09:04:00,
2013-08-31 04:14:00,71.9,71.0,29.91,SSE,161,0.0,0.0,97,0.00,,,0.00,0,Wunderground v.1.15,2013-08-31 09:14:00,
2013-08-31 04:24:00,71.6,70.7,29.91,SSE,161,0.0,0.0,97,0.00,,,0.00,0,Wunderground v.1.15,2013-08-31 09:24:00,
2013-08-31 04:29:00,71.5,70.6,29.92,SSE,161,0.0,0.0,97,0.00,,,0.00,0,Wunderground v.1.15,2013-08-31 09:29:00,
2013-08-31 04:39:00,71.5,70.9,29.92,SSE,161,0.0,0.0,98,0.00,,,0.00,0,Wunderground v.1.15,2013-08-31 09:39:00,
2013-08-31 04:44:00,71.4,70.8,29.92,SSE,161,0.0,0.0,98,0.00,,,0.00,0,Wunderground v.1.15,2013-08-31 09:44:00,
2013-08-31 04:54:00,71.3,70.7,29.92,SSE,161,0.0,0.0,98,0.00,,,0.00,0,Wunderground v.1.15,2013-08-31 09:54:00,
2013-08-31 04:59:00,71.5,70.9,29.92,ESE,113,0.0,0.0,98,0.00,,,0.00,0,Wunderground v.1.15,2013-08-31 09:59:00,
2013-08-31 05:09:00,71.6,71.0,29.92,ESE,113,0.0,0.0,98,0.00,,,0.00,0,Wunderground v.1.15,2013-08-31 10:09:00,
2013-08-31 05:24:00,71.6,71.0,29.92,ESE,113,0.0,0.0,98,0.00,,,0.00,0,Wunderground v.1.15,2013-08-31 10:24:00,
2013-08-31 05:34:00,71.5,70.9,29.93,ESE,113,0.0,0.0,98,0.00,,,0.00,0,Wunderground v.1.15,2013-08-31 10:34:00,
2013-08-31 05:44:00,71.5,70.9,29.93,ESE,113,0.0,0.0,98,0.00,,,0.00,0,Wunderground v.1.15,2013-08-31 10:44:00,
2013-08-31 05:49:00,71.5,70.9,29.93,ESE,113,0.0,0.0,98,0.00,,,0.00,0,Wunderground v.1.15,2013-08-31 10:49:00,
2013-08-31 05:59:00,71.4,70.8,29.93,ESE,113,0.0,0.0,98,0.00,,,0.00,0,Wunderground v.1.15,2013-08-31 10:59:00,
2013-08-31 06:04:00,71.3,70.7,29.93,ESE,113,0.0,0.0,98,0.00,,,0.00,0,Wunderground v.1.15,2013-08-31 11:04:00,
2013-08-31 06:14:00,71.3,70.7,29.93,ESE,113,0.0,0.0,98,0.00,,,0.00,0,Wunderground v.1.15,2013-08-31 11:14:00,
2013-08-31 06:24:00,71.2,70.6,29.93,ESE,113,0.0,0.0,98,0.00,,,0.00,5,Wunderground v.1.15,2013-08-31 11:24:00,
2013-08-31 06:34:00,71.0,70.4,29.93,ESE,113,0.0,0.0,98,0.00,,,0.00,9,Wunderground v.1.15,2013-08-31 11:34:00,
2013-08-31 06:44:00,70.9,70.3,29.93,ESE,113,0.0,0.0,98,0.00,,,0.00,30,Wunderground v.1.15,2013-08-31 11:44:00,
2013-08-31 06:49:00,71.0,70.4,29.93,ESE,113,0.0,0.0,98,0.00,,,0.00,37,Wunderground v.1.15,2013-08-31 11:49:00,
2013-08-31 07:04:00,71.6,71.0,29.93,ENE,62,1.0,1.0,98,0.00,,,0.00,65,Wunderground v.1.15,2013-08-31 12:04:00,
2013-08-31 07:09:00,71.9,71.6,29.93,ENE,62,0.0,1.0,99,0.00,,,0.00,83,Wunderground v.1.15,2013-08-31 12:09:00,
2013-08-31 07:19:00,72.2,71.9,29.93,ENE,62,0.0,0.0,99,0.00,,,0.00,116,Wunderground v.1.15,2013-08-31 12:19:00,
2013-08-31 07:24:00,72.5,72.2,29.94,NE,55,0.0,1.0,99,0.00,,,0.00,105,Wunderground v.1.15,2013-08-31 12:24:00,
2013-08-31 07:34:00,72.9,72.6,29.94,NE,55,0.0,0.0,99,0.00,,,0.00,167,Wunderground v.1.15,2013-08-31 12:34:00,
2013-08-31 07:44:00,73.3,73.0,29.94,NE,55,0.0,0.0,99,0.00,,,0.00,207,Wunderground v.1.15,2013-08-31 12:44:00,
2013-08-31 07:54:00,73.9,73.3,29.94,North,355,0.0,0.0,98,0.00,,,0.00,243,Wunderground v.1.15,2013-08-31 12:54:00,
2013-08-31 07:59:00,74.4,73.5,29.94,North,355,0.0,0.0,97,0.00,,,0.00,265,Wunderground v.1.15,2013-08-31 12:59:00,
2013-08-31 08:09:00,75.1,73.9,29.94,NNE,30,0.0,0.0,96,0.00,,,0.00,299,Wunderground v.1.15,2013-08-31 13:09:00,
2013-08-31 08:19:00,76.0,74.1,29.94,SE,144,1.0,1.0,94,0.00,,,0.00,330,Wunderground v.1.15,2013-08-31 13:19:00,
2013-08-31 08:29:00,77.1,74.6,29.94,SSE,153,0.0,1.0,92,0.00,,,0.00,367,Wunderground v.1.15,2013-08-31 13:29:00,
2013-08-31 08:39:00,78.4,74.9,29.94,SSE,154,1.0,1.0,89,0.00,,,0.00,396,Wunderground v.1.15,2013-08-31 13:39:00,
2013-08-31 08:44:00,79.1,74.9,29.94,SSW,199,1.0,5.0,87,0.00,,,0.00,411,Wunderground v.1.15,2013-08-31 13:44:00,
2013-08-31 08:54:00,79.9,75.3,29.94,SSW,198,2.0,2.0,86,0.00,,,0.00,439,Wunderground v.1.15,2013-08-31 13:54:00,
2013-08-31 08:59:00,80.1,76.2,29.94,South,175,1.0,2.0,88,0.00,,,0.00,457,Wunderground v.1.15,2013-08-31 13:59:00,
2013-08-31 09:09:00,80.8,75.5,29.95,South,184,1.0,1.0,84,0.00,,,0.00,496,Wunderground v.1.15,2013-08-31 14:09:00,
2013-08-31 09:19:00,81.2,76.3,29.94,SSW,213,2.0,5.0,85,0.00,,,0.00,526,Wunderground v.1.15,2013-08-31 14:19:00,
2013-08-31 09:24:00,81.6,76.6,29.94,WSW,247,2.0,2.0,85,0.00,,,0.00,541,Wunderground v.1.15,2013-08-31 14:24:00,
2013-08-31 09:34:00,81.6,76.3,29.94,SW,220,2.0,3.0,84,0.00,,,0.00,571,Wunderground v.1.15,2013-08-31 14:34:00,
2013-08-31 09:39:00,81.8,76.8,29.94,SSE,150,2.0,3.0,85,0.00,,,0.00,585,Wunderground v.1.15,2013-08-31 14:39:00,
2013-08-31 09:49:00,82.4,76.7,29.95,SSE,151,2.0,4.0,83,0.00,,,0.00,612,Wunderground v.1.15,2013-08-31 14:49:00,
2013-08-31 09:59:00,82.7,75.9,29.95,SSW,213,2.0,2.0,80,0.00,,,0.00,638,Wunderground v.1.15,2013-08-31 14:59:00,
2013-08-31 10:09:00,83.7,76.9,29.95,SSE,150,1.0,2.0,80,0.00,,,0.00,666,Wunderground v.1.15,2013-08-31 15:09:00,
2013-08-31 10:19:00,84.0,77.2,29.95,ESE,112,2.0,2.0,80,0.00,,,0.00,696,Wunderground v.1.15,2013-08-31 15:19:00,
2013-08-31 10:24:00,84.2,77.0,29.95,SSW,204,2.0,2.0,79,0.00,,,0.00,705,Wunderground v.1.15,2013-08-31 15:24:00,
2013-08-31 10:34:00,84.7,76.7,29.95,West,263,2.0,2.0,77,0.00,,,0.00,724,Wunderground v.1.15,2013-08-31 15:34:00,
2013-08-31 10:44:00,85.1,77.1,29.94,South,174,1.0,2.0,77,0.00,,,0.00,756,Wunderground v.1.15,2013-08-31 15:44:00,
2013-08-31 10:54:00,85.7,75.6,29.94,South,182,2.0,2.0,72,0.00,,,0.00,770,Wunderground v.1.15,2013-08-31 15:54:00,
2013-08-31 10:59:00,85.9,77.1,29.94,SSW,200,1.0,2.0,75,0.00,,,0.00,786,Wunderground v.1.15,2013-08-31 15:59:00,
2013-08-31 11:09:00,86.4,77.1,29.94,South,177,1.0,1.0,74,0.00,,,0.00,837,Wunderground v.1.15,2013-08-31 16:09:00,
2013-08-31 11:19:00,86.4,76.3,29.94,East,92,1.0,1.0,72,0.00,,,0.00,933,Wunderground v.1.15,2013-08-31 16:19:00,
2013-08-31 11:29:00,86.3,77.0,29.93,SSW,196,0.0,1.0,74,0.00,,,0.00,870,Wunderground v.1.15,2013-08-31 16:29:00,
2013-08-31 11:34:00,86.1,76.0,29.93,SSW,207,0.0,2.0,72,0.00,,,0.00,246,Wunderground v.1.15,2013-08-31 16:34:00,
2013-08-31 11:44:00,85.8,77.8,29.93,SSW,210,0.0,0.0,77,0.00,,,0.00,390,Wunderground v.1.15,2013-08-31 16:44:00,
2013-08-31 11:54:00,85.8,76.1,29.93,South,184,0.0,0.0,73,0.00,,,0.00,306,Wunderground v.1.15,2013-08-31 16:54:00,
2013-08-31 12:04:00,85.4,76.6,29.93,South,184,0.0,0.0,75,0.00,,,0.00,237,Wunderground v.1.15,2013-08-31 17:04:00,
2013-08-31 12:09:00,85.0,77.0,29.93,South,184,0.0,0.0,77,0.00,,,0.00,246,Wunderground v.1.15,2013-08-31 17:09:00,
2013-08-31 12:19:00,86.4,75.5,29.93,NE,46,0.0,1.0,70,0.00,,,0.00,810,Wunderground v.1.15,2013-08-31 17:19:00,
2013-08-31 12:29:00,85.7,75.2,29.92,NNE,22,1.0,2.0,71,0.00,,,0.00,357,Wunderground v.1.15,2013-08-31 17:29:00,
2013-08-31 12:34:00,86.3,74.5,29.92,West,261,0.0,1.0,68,0.00,,,0.00,993,Wunderground v.1.15,2013-08-31 17:34:00,
2013-08-31 12:44:00,86.5,75.5,29.92,ENE,59,3.0,3.0,70,0.00,,,0.00,471,Wunderground v.1.15,2013-08-31 17:44:00,
2013-08-31 12:54:00,84.8,74.3,29.92,North,5,2.0,4.0,71,0.00,,,0.00,239,Wunderground v.1.15,2013-08-31 17:54:00,
2013-08-31 13:04:00,83.6,74.4,29.92,East,100,3.0,3.0,74,0.00,,,0.00,155,Wunderground v.1.15,2013-08-31 18:04:00,
2013-08-31 13:09:00,83.1,74.7,29.92,ESE,103,3.0,3.0,76,0.00,,,0.00,165,Wunderground v.1.15,2013-08-31 18:09:00,
2013-08-31 13:19:00,82.2,74.3,29.92,South,188,2.0,2.0,77,0.00,,,0.00,171,Wunderground v.1.15,2013-08-31 18:19:00,
2013-08-31 13:29:00,82.7,74.4,29.92,SSW,202,2.0,7.0,76,0.00,,,0.00,585,Wunderground v.1.15,2013-08-31 18:29:00,
2013-08-31 13:39:00,83.7,75.3,29.92,South,188,4.0,5.0,76,0.00,,,0.00,763,Wunderground v.1.15,2013-08-31 18:39:00,
2013-08-31 13:49:00,85.3,75.7,29.91,South,175,2.0,3.0,73,0.00,,,0.00,977,Wunderground v.1.15,2013-08-31 18:49:00,
2013-08-31 13:59:00,84.2,73.3,29.91,SSE,147,4.0,7.0,70,0.00,,,0.00,817,Wunderground v.1.15,2013-08-31 18:59:00,
2013-08-31 14:04:00,84.1,72.8,29.91,SSE,151,4.0,4.0,69,0.00,,,0.00,853,Wunderground v.1.15,2013-08-31 19:04:00,
2013-08-31 14:14:00,84.9,73.6,29.89,SSE,166,3.0,3.0,69,0.00,,,0.00,506,Wunderground v.1.15,2013-08-31 19:14:00,
2013-08-31 14:24:00,86.0,75.1,29.89,ESE,121,3.0,3.0,70,0.00,,,0.00,819,Wunderground v.1.15,2013-08-31 19:24:00,
2013-08-31 14:34:00,85.8,74.9,29.88,SE,128,1.0,1.0,70,0.00,,,0.00,784,Wunderground v.1.15,2013-08-31 19:34:00,
2013-08-31 14:39:00,86.4,74.6,29.88,SE,134,1.0,1.0,68,0.00,,,0.00,777,Wunderground v.1.15,2013-08-31 19:39:00,
2013-08-31 14:49:00,86.9,75.5,29.88,South,180,2.0,4.0,69,0.00,,,0.00,747,Wunderground v.1.15,2013-08-31 19:49:00,
2013-08-31 14:54:00,87.4,76.0,29.87,SE,130,3.0,3.0,69,0.00,,,0.00,735,Wunderground v.1.15,2013-08-31 19:54:00,
2013-08-31 15:04:00,87.6,73.4,29.87,SSE,159,2.0,2.0,63,0.00,,,0.00,700,Wunderground v.1.15,2013-08-31 20:04:00,
2013-08-31 15:09:00,87.9,75.6,29.86,ESE,122,1.0,2.0,67,0.00,,,0.00,693,Wunderground v.1.15,2013-08-31 20:09:00,
2013-08-31 15:19:00,88.9,75.1,29.86,SW,221,1.0,3.0,64,0.00,,,0.00,670,Wunderground v.1.15,2013-08-31 20:19:00,
2013-08-31 15:29:00,88.9,74.7,29.86,West,279,0.0,2.0,63,0.00,,,0.00,636,Wunderground v.1.15,2013-08-31 20:29:00,
2013-08-31 15:34:00,88.9,76.1,29.86,West,274,0.0,0.0,66,0.00,,,0.00,599,Wunderground v.1.15,2013-08-31 20:34:00,
2013-08-31 15:44:00,89.2,75.9,29.87,WSW,249,1.0,2.0,65,0.00,,,0.00,608,Wunderground v.1.15,2013-08-31 20:44:00,
2013-08-31 15:49:00,89.0,76.2,29.87,SW,222,1.0,2.0,66,0.00,,,0.00,621,Wunderground v.1.15,2013-08-31 20:49:00,
2013-08-31 15:59:00,88.8,74.6,29.86,West,267,1.0,3.0,63,0.00,,,0.00,591,Wunderground v.1.15,2013-08-31 20:59:00,
2013-08-31 16:04:00,89.1,74.4,29.86,SW,217,1.0,4.0,62,0.00,,,0.00,564,Wunderground v.1.15,2013-08-31 21:04:00,
2013-08-31 16:14:00,88.7,73.5,29.86,SSW,205,2.0,3.0,61,0.00,,,0.00,538,Wunderground v.1.15,2013-08-31 21:14:00,
2013-08-31 16:24:00,88.9,75.1,29.86,WSW,243,2.0,2.0,64,0.00,,,0.00,504,Wunderground v.1.15,2013-08-31 21:24:00,
2013-08-31 16:29:00,88.9,75.6,29.86,WSW,241,1.0,2.0,65,0.00,,,0.00,490,Wunderground v.1.15,2013-08-31 21:29:00,
2013-08-31 16:39:00,88.6,75.8,29.86,WNW,301,2.0,3.0,66,0.00,,,0.00,504,Wunderground v.1.15,2013-08-31 21:39:00,
2013-08-31 16:49:00,88.0,76.1,29.86,SE,142,2.0,4.0,68,0.00,,,0.00,462,Wunderground v.1.15,2013-08-31 21:49:00,
2013-08-31 16:59:00,87.4,77.3,29.86,SSE,165,2.0,5.0,72,0.00,,,0.00,438,Wunderground v.1.15,2013-08-31 21:59:00,
2013-08-31 17:09:00,87.3,75.4,29.85,SE,130,2.0,3.0,68,0.00,,,0.00,403,Wunderground v.1.15,2013-08-31 22:09:00,
2013-08-31 17:19:00,87.1,76.1,29.85,SSE,161,1.0,4.0,70,0.00,,,0.00,367,Wunderground v.1.15,2013-08-31 22:19:00,
2013-08-31 17:24:00,86.8,76.7,29.85,SE,136,1.0,1.0,72,0.00,,,0.00,113,Wunderground v.1.15,2013-08-31 22:24:00,
2013-08-31 17:34:00,85.7,76.0,29.85,South,171,1.0,2.0,73,0.00,,,0.00,171,Wunderground v.1.15,2013-08-31 22:34:00,
2013-08-31 17:44:00,85.8,76.1,29.85,South,174,2.0,2.0,73,0.00,,,0.00,218,Wunderground v.1.15,2013-08-31 22:44:00,
2013-08-31 17:54:00,85.2,75.6,29.85,SSW,193,1.0,1.0,73,0.00,,,0.00,70,Wunderground v.1.15,2013-08-31 22:54:00,
2013-08-31 18:04:00,84.0,75.2,29.85,South,177,1.0,3.0,75,0.00,,,0.00,44,Wunderground v.1.15,2013-08-31 23:04:00,
2013-08-31 18:09:00,83.4,75.4,29.86,South,186,1.0,3.0,77,0.00,,,0.00,35,Wunderground v.1.15,2013-08-31 23:09:00,
2013-08-31 18:19:00,82.8,74.8,29.86,SSW,202,2.0,3.0,77,0.00,,,0.00,33,Wunderground v.1.15,2013-08-31 23:19:00,
2013-08-31 18:29:00,81.8,74.6,29.85,SW,227,1.0,1.0,79,0.00,,,0.00,37,Wunderground v.1.15,2013-08-31 23:29:00,
2013-08-31 18:34:00,81.4,73.9,29.86,West,262,1.0,1.0,78,0.00,,,0.00,40,Wunderground v.1.15,2013-08-31 23:34:00,
2013-08-31 18:44:00,81.3,73.8,29.86,South,184,0.0,1.0,78,0.00,,,0.00,54,Wunderground v.1.15,2013-08-31 23:44:00,
2013-08-31 18:54:00,81.7,73.8,29.86,SSW,195,1.0,1.0,77,0.00,,,0.00,83,Wunderground v.1.15,2013-08-31 23:54:00,
2013-08-31 19:04:00,81.8,73.9,29.86,South,178,0.0,1.0,77,0.00,,,0.00,51,Wunderground v.1.15,2013-09-01 00:04:00,
2013-08-31 19:14:00,80.9,73.8,29.87,SSE,167,0.0,0.0,79,0.00,,,0.00,9,Wunderground v.1.15,2013-09-01 00:14:00,
2013-08-31 19:19:00,80.6,73.9,29.87,South,190,0.0,0.0,80,0.00,,,0.00,5,Wunderground v.1.15,2013-09-01 00:19:00,
2013-08-31 19:29:00,79.4,73.8,29.87,South,187,0.0,0.0,83,0.00,,,0.00,0,Wunderground v.1.15,2013-09-01 00:29:00,
2013-08-31 19:39:00,78.4,73.5,29.87,South,187,0.0,0.0,85,0.00,,,0.00,0,Wunderground v.1.15,2013-09-01 00:39:00,
2013-08-31 19:49:00,77.6,73.4,29.88,South,187,0.0,0.0,87,0.00,,,0.00,0,Wunderground v.1.15,2013-09-01 00:49:00,
2013-08-31 19:59:00,77.1,72.6,29.89,South,187,0.0,0.0,86,0.00,,,0.00,0,Wunderground v.1.15,2013-09-01 00:59:00,
2013-08-31 20:04:00,76.9,72.4,29.89,South,187,0.0,0.0,86,0.00,,,0.00,0,Wunderground v.1.15,2013-09-01 01:04:00,
2013-08-31 20:14:00,76.4,72.9,29.88,South,187,0.0,0.0,89,0.00,,,0.00,0,Wunderground v.1.15,2013-09-01 01:14:00,
2013-08-31 20:24:00,76.1,72.3,29.88,South,187,0.0,0.0,88,0.00,,,0.00,0,Wunderground v.1.15,2013-09-01 01:24:00,
2013-08-31 20:34:00,76.0,71.8,29.89,South,187,0.0,0.0,87,0.00,,,0.00,0,Wunderground v.1.15,2013-09-01 01:34:00,
2013-08-31 20:44:00,75.8,71.3,29.89,South,187,0.0,0.0,86,0.00,,,0.00,0,Wunderground v.1.15,2013-09-01 01:44:00,
2013-08-31 20:54:00,75.7,70.9,29.89,South,179,0.0,0.0,85,0.00,,,0.00,0,Wunderground v.1.15,2013-09-01 01:54:00,
2013-08-31 20:59:00,76.1,70.6,29.89,South,185,0.0,0.0,83,0.00,,,0.00,0,Wunderground v.1.15,2013-09-01 01:59:00,
2013-08-31 21:09:00,75.8,71.0,29.89,South,185,0.0,0.0,85,0.00,,,0.00,0,Wunderground v.1.15,2013-09-01 02:09:00,
2013-08-31 21:14:00,75.8,70.6,29.89,South,185,0.0,0.0,84,0.00,,,0.00,0,Wunderground v.1.15,2013-09-01 02:14:00,
2013-08-31 21:24:00,76.4,70.9,29.89,South,185,0.0,0.0,83,0.00,,,0.00,0,Wunderground v.1.15,2013-09-01 02:24:00,
2013-08-31 21:34:00,75.2,71.1,29.89,South,185,0.0,0.0,87,0.00,,,0.00,0,Wunderground v.1.15,2013-09-01 02:34:00,
2013-08-31 21:39:00,74.8,71.0,29.90,South,185,0.0,0.0,88,0.00,,,0.00,0,Wunderground v.1.15,2013-09-01 02:39:00,
2013-08-31 21:44:00,74.8,71.0,29.90,SSE,150,0.0,4.0,88,0.00,,,0.00,0,Wunderground v.1.15,2013-09-01 02:44:00,
2013-08-31 21:54:00,76.0,71.8,29.89,SSE,161,1.0,1.0,87,0.00,,,0.00,0,Wunderground v.1.15,2013-09-01 02:54:00,
2013-08-31 21:59:00,76.2,72.0,29.89,South,169,1.0,1.0,87,0.00,,,0.00,0,Wunderground v.1.15,2013-09-01 02:59:00,
2013-08-31 22:09:00,76.3,72.5,29.89,South,182,1.0,5.0,88,0.00,,,0.00,0,Wunderground v.1.15,2013-09-01 03:09:00,
2013-08-31 22:19:00,76.3,72.5,29.88,South,190,1.0,2.0,88,0.00,,,0.00,0,Wunderground v.1.15,2013-09-01 03:19:00,
2013-08-31 22:29:00,76.2,72.4,29.88,South,179,1.0,1.0,88,0.00,,,0.00,0,Wunderground v.1.15,2013-09-01 03:29:00,
2013-08-31 22:39:00,76.1,72.3,29.89,SSW,196,1.0,1.0,88,0.00,,,0.00,0,Wunderground v.1.15,2013-09-01 03:39:00,
2013-08-31 22:44:00,76.1,72.3,29.89,South,189,1.0,1.0,88,0.00,,,0.00,0,Wunderground v.1.15,2013-09-01 03:44:00,
2013-08-31 22:54:00,76.2,72.4,29.88,SSW,213,1.0,1.0,88,0.00,,,0.00,0,Wunderground v.1.15,2013-09-01 03:54:00,
2013-08-31 23:04:00,76.2,72.4,29.88,SW,221,1.0,1.0,88,0.00,,,0.00,0,Wunderground v.1.15,2013-09-01 04:04:00,
2013-08-31 23:09:00,76.1,72.3,29.88,SW,215,1.0,1.0,88,0.00,,,0.00,0,Wunderground v.1.15,2013-09-01 04:09:00,
2013-08-31 23:19:00,76.4,72.6,29.88,SSW,207,1.0,1.0,88,0.00,,,0.00,0,Wunderground v.1.15,2013-09-01 04:19:00,
2013-08-31 23:24:00,76.2,72.7,29.88,South,188,1.0,1.0,89,0.00,,,0.00,0,Wunderground v.1.15,2013-09-01 04:24:00,
2013-08-31 23:34:00,76.3,72.5,29.88,SSW,200,1.0,1.0,88,0.00,,,0.00,0,Wunderground v.1.15,2013-09-01 04:34:00,
2013-08-31 23:44:00,76.2,72.7,29.88,SSW,212,1.0,1.0,89,0.00,,,0.00,0,Wunderground v.1.15,2013-09-01 04:44:00,
2013-08-31 23:54:00,76.2,72.7,29.88,SW,222,1.0,1.0,89,0.00,,,0.00,0,Wunderground v.1.15,2013-09-01 04:54:00,
2013-08-31 23:59:00,76.1,72.6,29.87,SSW,199,1.0,1.0,89,0.00,,,0.00,0,Wunderground v.1.15,2013-09-01 04:59:00,